createdAt,value
2022-08-19T00:01:02.767Z,96.90
2022-08-19T00:03:29.558Z,97.40
2022-08-19T00:05:56.336Z,97.10
2022-08-19T00:08:23.299Z,97.20
2022-08-19T00:10:50.123Z,97.20
2022-08-19T00:13:16.848Z,97.20
2022-08-19T00:15:45.665Z,97.30
2022-08-19T00:18:12.411Z,97.40
2022-08-19T00:20:41.314Z,97.30
2022-08-19T00:23:08.063Z,97.30
2022-08-19T00:25:34.827Z,97.40
2022-08-19T00:28:01.600Z,97.50
2022-08-19T00:30:31.325Z,97.50
2022-08-19T00:32:58.701Z,97.40
2022-08-19T00:35:26.140Z,97.70
2022-08-19T00:37:52.914Z,97.80
2022-08-19T00:40:20.579Z,97.90
2022-08-19T00:42:47.663Z,98.00
2022-08-19T00:45:17.944Z,98.00
2022-08-19T00:47:45.230Z,97.70
2022-08-19T00:50:13.701Z,97.90
2022-08-19T00:52:45.464Z,97.90
2022-08-19T00:55:19.649Z,98.00
2022-08-19T00:57:52.779Z,97.80
2022-08-19T01:00:20.105Z,97.90
2022-08-19T01:02:47.013Z,98.00
2022-08-19T01:05:19.633Z,98.00
2022-08-19T01:07:46.528Z,98.10
2022-08-19T01:10:16.007Z,98.20
2022-08-19T01:12:43.391Z,98.20
2022-08-19T01:15:11.874Z,98.40
2022-08-19T01:17:39.475Z,98.40
2022-08-19T01:20:08.509Z,98.40
2022-08-19T01:22:42.859Z,98.40
2022-08-19T01:25:14.748Z,98.40
2022-08-19T01:27:43.172Z,98.30
2022-08-19T01:30:12.482Z,98.50
2022-08-19T01:32:39.327Z,98.60
2022-08-19T01:35:06.226Z,98.60
2022-08-19T01:37:42.761Z,98.70
2022-08-19T01:40:10.178Z,98.60
2022-08-19T01:42:37.087Z,98.70
2022-08-19T01:45:04.617Z,98.60
2022-08-19T01:47:31.499Z,98.80
2022-08-19T01:49:59.263Z,98.80
2022-08-19T01:52:26.080Z,98.80
2022-08-19T01:54:52.866Z,98.80
2022-08-19T01:57:19.756Z,99.10
2022-08-19T01:59:46.796Z,99.10
2022-08-19T02:02:13.619Z,99.10
2022-08-19T02:04:40.885Z,99.10
2022-08-19T02:07:09.019Z,99.10
2022-08-19T02:09:36.436Z,99.10
2022-08-19T02:12:03.729Z,99.10
2022-08-19T02:14:30.560Z,99.10
2022-08-19T02:16:57.317Z,99.10
2022-08-19T02:19:24.080Z,99.10
2022-08-19T02:21:50.988Z,99.10
2022-08-19T02:24:17.955Z,99.00
2022-08-19T02:26:44.808Z,99.00
2022-08-19T02:29:11.588Z,99.00
2022-08-19T02:31:38.407Z,99.10
2022-08-19T02:34:05.240Z,99.20
2022-08-19T02:36:32.107Z,99.10
2022-08-19T02:38:58.929Z,99.10
2022-08-19T02:41:28.042Z,99.20
2022-08-19T02:44:29.915Z,99.20
2022-08-19T02:46:44.361Z,99.30
2022-08-19T02:49:11.160Z,99.40
2022-08-19T02:51:39.643Z,99.20
2022-08-19T02:54:07.393Z,99.30
2022-08-19T02:56:37.777Z,99.40
2022-08-19T02:59:11.090Z,99.50
2022-08-19T03:01:40.474Z,99.50
2022-08-19T03:04:07.805Z,99.60
2022-08-19T03:06:37.332Z,99.70
2022-08-19T03:09:04.231Z,99.70
2022-08-19T03:11:32.401Z,99.80
2022-08-19T03:13:59.893Z,99.90
2022-08-19T03:16:28.008Z,99.90
2022-08-19T03:18:55.379Z,99.90
2022-08-19T03:21:24.899Z,99.90
2022-08-19T03:23:54.943Z,99.90
2022-08-19T03:26:22.051Z,99.80
2022-08-19T03:28:51.589Z,99.90
2022-08-19T03:31:45.202Z,99.90
2022-08-19T03:34:14.530Z,99.90
2022-08-19T03:36:41.803Z,99.90
2022-08-19T03:39:09.550Z,99.90
2022-08-19T03:41:45.465Z,99.90
2022-08-19T03:44:22.708Z,99.90
2022-08-19T03:46:51.669Z,99.90
2022-08-19T03:49:18.786Z,99.90
2022-08-19T03:51:47.256Z,99.90
2022-08-19T03:54:15.333Z,99.90
2022-08-19T03:56:43.059Z,99.90
2022-08-19T03:59:11.760Z,99.90
2022-08-19T04:01:38.602Z,99.90
2022-08-19T04:04:05.879Z,99.90
2022-08-19T04:06:35.497Z,99.90
2022-08-19T04:09:06.862Z,99.90
2022-08-19T04:11:43.734Z,99.90
2022-08-19T04:14:19.384Z,99.90
2022-08-19T04:16:47.323Z,99.90
2022-08-19T04:19:14.733Z,99.90
2022-08-19T04:21:43.708Z,99.90
2022-08-19T04:24:10.552Z,99.90
2022-08-19T04:26:38.203Z,99.90
2022-08-19T04:29:10.435Z,99.90
2022-08-19T04:31:39.240Z,99.90
2022-08-19T04:34:07.230Z,99.90
2022-08-19T04:36:35.635Z,99.90
2022-08-19T04:39:04.774Z,99.90
2022-08-19T04:41:50.220Z,99.90
2022-08-19T04:44:20.077Z,99.90
2022-08-19T04:46:50.889Z,99.90
2022-08-19T04:49:20.022Z,99.90
2022-08-19T04:51:49.824Z,99.90
2022-08-19T04:54:23.970Z,99.90
2022-08-19T04:57:07.548Z,99.90
2022-08-19T04:59:34.675Z,99.90
2022-08-19T05:02:01.514Z,99.90
2022-08-19T05:04:32.739Z,99.90
2022-08-19T05:07:01.058Z,99.90
2022-08-19T05:09:33.081Z,99.90
2022-08-19T05:12:16.489Z,99.90
2022-08-19T05:14:43.649Z,99.90
2022-08-19T05:20:16.276Z,99.90
2022-08-19T05:22:44.662Z,99.90
2022-08-19T05:25:13.890Z,99.90
2022-08-19T05:27:42.218Z,99.90
2022-08-19T05:30:09.415Z,99.90
2022-08-19T05:32:36.345Z,99.90
2022-08-19T05:35:03.644Z,99.90
2022-08-19T05:37:30.506Z,99.90
2022-08-19T05:39:57.505Z,99.90
2022-08-19T05:42:24.866Z,99.90
2022-08-19T05:44:52.171Z,99.90
2022-08-19T05:47:22.306Z,99.90
2022-08-19T05:49:50.954Z,99.90
2022-08-19T05:52:18.819Z,99.90
2022-08-19T05:54:51.210Z,99.90
2022-08-19T05:57:19.842Z,99.90
2022-08-19T05:59:49.168Z,99.90
2022-08-19T06:02:16.193Z,99.90
2022-08-19T06:04:45.851Z,99.90
2022-08-19T06:07:13.209Z,99.90
2022-08-19T06:09:40.861Z,99.90
2022-08-19T06:12:08.276Z,99.90
2022-08-19T06:14:40.158Z,99.80
2022-08-19T06:17:09.365Z,99.50
2022-08-19T06:19:40.764Z,99.10
2022-08-19T06:22:08.397Z,98.60
2022-08-19T06:24:36.400Z,98.30
2022-08-19T06:27:06.505Z,97.90
2022-08-19T06:29:34.436Z,97.70
2022-08-19T06:32:03.511Z,97.30
2022-08-19T06:34:31.849Z,96.90
2022-08-19T06:37:03.738Z,96.70
2022-08-19T06:39:32.642Z,96.20
2022-08-19T06:42:00.629Z,95.60
2022-08-19T06:44:29.309Z,95.30
2022-08-19T06:46:58.742Z,95.10
2022-08-19T06:49:29.761Z,95.00
2022-08-19T06:51:59.751Z,94.70
2022-08-19T06:54:33.253Z,94.80
2022-08-19T06:57:04.940Z,95.00
2022-08-19T06:59:33.518Z,95.10
2022-08-19T07:02:03.190Z,95.40
2022-08-19T07:04:34.793Z,95.60
2022-08-19T07:07:20.064Z,95.90
2022-08-19T07:09:55.348Z,96.10
2022-08-19T07:12:33.888Z,96.20
2022-08-19T07:15:04.695Z,96.50
2022-08-19T07:17:34.704Z,96.50
2022-08-19T07:20:05.638Z,97.00
2022-08-19T07:22:43.203Z,96.60
2022-08-19T07:25:10.916Z,96.50
2022-08-19T07:27:39.819Z,96.40
2022-08-19T07:30:11.734Z,96.60
2022-08-19T07:32:39.481Z,96.20
2022-08-19T07:35:07.238Z,96.00
2022-08-19T07:37:36.518Z,95.70
2022-08-19T07:40:04.958Z,95.80
2022-08-19T07:42:31.908Z,95.60
2022-08-19T07:44:59.542Z,95.20
2022-08-19T07:47:48.288Z,94.80
2022-08-19T07:50:15.792Z,94.70
2022-08-19T07:52:45.203Z,94.60
2022-08-19T07:55:41.839Z,94.40
2022-08-19T07:58:03.299Z,94.40
2022-08-19T08:00:31.706Z,94.00
2022-08-19T08:02:58.541Z,93.60
2022-08-19T08:05:44.397Z,93.10
2022-08-19T08:08:32.063Z,93.10
2022-08-19T08:10:59.902Z,93.30
2022-08-19T08:13:28.113Z,93.10
2022-08-19T08:15:57.107Z,92.30
2022-08-19T08:18:30.421Z,92.00
2022-08-19T08:20:58.827Z,91.90
2022-08-19T08:23:27.066Z,91.70
2022-08-19T08:25:57.669Z,91.40
2022-08-19T08:28:29.533Z,90.90
2022-08-19T08:30:57.640Z,90.30
2022-08-19T08:33:28.484Z,90.10
2022-08-19T08:36:08.415Z,90.10
2022-08-19T08:38:42.742Z,90.00
2022-08-19T08:41:32.726Z,89.40
2022-08-19T08:43:59.644Z,88.70
2022-08-19T08:46:35.400Z,88.00
2022-08-19T08:49:08.234Z,86.70
2022-08-19T08:51:38.077Z,85.90
2022-08-19T08:54:07.670Z,87.00
2022-08-19T08:56:38.810Z,86.10
2022-08-19T08:59:09.409Z,86.30
2022-08-19T09:01:37.124Z,88.10
2022-08-19T09:04:06.077Z,88.90
2022-08-19T09:06:52.897Z,88.60
2022-08-19T09:09:23.192Z,88.70
2022-08-19T09:12:06.702Z,88.70
2022-08-19T09:14:49.883Z,88.50
2022-08-19T09:17:18.209Z,85.80
2022-08-19T09:19:51.921Z,85.10
2022-08-19T09:22:25.618Z,84.60
2022-08-19T09:24:55.594Z,82.70
2022-08-19T09:27:42.715Z,82.00
2022-08-19T09:30:17.119Z,81.90
2022-08-19T09:32:46.241Z,81.60
2022-08-19T09:35:14.167Z,80.90
2022-08-19T09:37:43.690Z,80.40
2022-08-19T09:40:12.287Z,79.30
2022-08-19T09:42:39.159Z,81.80
2022-08-19T09:45:18.295Z,81.30
2022-08-19T09:47:45.410Z,82.70
2022-08-19T09:50:16.486Z,89.20
2022-08-19T09:52:56.922Z,86.30
2022-08-19T09:55:31.476Z,84.20
2022-08-19T09:58:03.051Z,82.90
2022-08-19T10:00:31.966Z,80.60
2022-08-19T10:02:59.050Z,78.90
2022-08-19T10:05:44.807Z,77.80
2022-08-19T10:08:17.801Z,75.00
2022-08-19T10:10:46.204Z,72.70
2022-08-19T10:13:18.749Z,71.90
2022-08-19T10:15:47.971Z,69.90
2022-08-19T10:18:19.333Z,67.90
2022-08-19T10:20:52.736Z,66.90
2022-08-19T10:23:21.417Z,65.80
2022-08-19T10:25:49.467Z,66.40
2022-08-19T10:28:19.183Z,65.80
2022-08-19T10:30:47.966Z,62.70
2022-08-19T10:33:38.544Z,62.10
2022-08-19T10:36:10.729Z,61.00
2022-08-19T10:38:38.917Z,58.70
2022-08-19T10:41:14.220Z,57.70
2022-08-19T10:43:42.479Z,56.80
2022-08-19T10:46:14.130Z,57.70
2022-08-19T10:48:44.969Z,56.90
2022-08-19T10:51:30.986Z,56.70
2022-08-19T10:53:59.082Z,56.90
2022-08-19T10:56:45.702Z,57.60
2022-08-19T10:59:14.793Z,57.40
2022-08-19T11:01:43.883Z,57.70
2022-08-19T11:04:12.243Z,57.30
2022-08-19T11:06:39.503Z,57.10
2022-08-19T11:09:06.927Z,55.60
2022-08-19T11:11:34.213Z,54.60
2022-08-19T11:14:07.296Z,53.60
2022-08-19T11:16:34.124Z,54.10
2022-08-19T11:19:01.829Z,55.70
2022-08-19T11:21:33.975Z,56.70
2022-08-19T11:24:13.339Z,56.60
2022-08-19T11:26:41.063Z,54.30
2022-08-19T11:29:13.853Z,54.20
2022-08-19T11:31:43.973Z,53.90
2022-08-19T11:34:14.271Z,53.60
2022-08-19T11:36:43.930Z,53.20
2022-08-19T11:39:12.551Z,52.80
2022-08-19T11:41:39.527Z,52.20
2022-08-19T11:44:08.638Z,53.10
2022-08-19T11:46:37.049Z,54.20
2022-08-19T11:49:04.772Z,55.00
2022-08-19T11:51:32.419Z,56.50
2022-08-19T11:53:59.915Z,57.60
2022-08-19T11:56:29.420Z,59.60
2022-08-19T11:58:57.769Z,59.30
2022-08-19T12:01:25.760Z,61.00
2022-08-19T12:03:53.749Z,61.70
2022-08-19T12:06:26.527Z,61.80
2022-08-19T12:08:53.524Z,62.00
2022-08-19T12:11:20.937Z,61.80
2022-08-19T12:13:48.655Z,62.30
2022-08-19T12:16:17.244Z,62.40
2022-08-19T12:18:47.103Z,62.60
2022-08-19T12:21:15.674Z,62.70
2022-08-19T12:23:44.146Z,61.30
2022-08-19T12:26:12.306Z,61.80
2022-08-19T12:28:39.742Z,62.70
2022-08-19T12:31:07.311Z,62.70
2022-08-19T12:33:35.165Z,62.00
2022-08-19T12:36:05.079Z,58.20
2022-08-19T12:38:33.226Z,58.00
2022-08-19T12:41:00.495Z,56.50
2022-08-19T12:43:28.263Z,55.30
2022-08-19T12:45:55.152Z,56.00
2022-08-19T12:48:33.150Z,56.00
2022-08-19T12:51:06.604Z,54.70
2022-08-19T12:53:33.506Z,54.30
2022-08-19T12:56:01.710Z,53.40
2022-08-19T12:58:29.968Z,52.40
2022-08-19T13:00:56.880Z,51.50
2022-08-19T13:03:29.925Z,53.40
2022-08-19T13:05:57.323Z,53.10
2022-08-19T13:08:24.365Z,53.40
2022-08-19T13:10:51.772Z,53.50
2022-08-19T13:13:18.848Z,54.00
2022-08-19T13:15:46.254Z,54.20
2022-08-19T13:18:13.787Z,54.70
2022-08-19T13:20:52.461Z,54.50
2022-08-19T13:23:20.374Z,55.30
2022-08-19T13:25:57.982Z,55.90
2022-08-19T13:28:28.975Z,54.90
2022-08-19T13:31:14.469Z,54.70
2022-08-19T13:33:41.361Z,55.20
2022-08-19T13:36:08.738Z,57.90
2022-08-19T13:38:35.977Z,59.00
2022-08-19T13:41:10.967Z,59.70
2022-08-19T13:43:40.372Z,60.90
2022-08-19T13:46:11.531Z,61.70
2022-08-19T13:48:38.385Z,62.20
2022-08-19T13:51:06.861Z,62.60
2022-08-19T13:53:33.710Z,62.00
2022-08-19T13:56:00.624Z,64.20
2022-08-19T13:58:27.411Z,64.10
2022-08-19T14:00:54.359Z,65.00
2022-08-19T14:03:21.268Z,65.40
2022-08-19T14:05:48.131Z,66.00
2022-08-19T14:08:15.204Z,67.30
2022-08-19T14:10:43.483Z,68.10
2022-08-19T14:13:10.243Z,70.10
2022-08-19T14:15:38.260Z,70.20
2022-08-19T14:18:05.101Z,69.70
2022-08-19T14:20:34.400Z,69.80
2022-08-19T14:23:01.154Z,70.10
2022-08-19T14:25:30.543Z,72.10
2022-08-19T14:27:58.014Z,72.30
2022-08-19T14:30:29.322Z,72.40
2022-08-19T14:32:57.211Z,73.40
2022-08-19T14:35:24.079Z,74.40
2022-08-19T14:37:51.455Z,75.20
2022-08-19T14:40:22.235Z,76.20
2022-08-19T14:42:49.498Z,74.40
2022-08-19T14:45:16.380Z,74.40
2022-08-19T14:47:43.259Z,73.70
2022-08-19T14:50:18.109Z,74.30
2022-08-19T14:52:46.397Z,74.70
2022-08-19T14:55:13.201Z,75.70
2022-08-19T14:57:41.628Z,75.80
2022-08-19T15:00:12.691Z,76.00
2022-08-19T15:02:39.984Z,76.70
2022-08-19T15:05:07.114Z,77.20
2022-08-19T15:10:02.027Z,74.60
2022-08-19T15:12:28.903Z,73.90
2022-08-19T15:14:56.730Z,72.30
2022-08-19T15:17:45.954Z,70.20
2022-08-19T15:20:13.600Z,68.40
2022-08-19T15:22:41.303Z,69.60
2022-08-19T15:25:11.739Z,71.30
2022-08-19T15:27:40.602Z,71.90
2022-08-19T15:30:11.923Z,72.60
2022-08-19T15:32:39.861Z,73.90
2022-08-19T15:35:07.993Z,74.20
2022-08-19T15:37:37.234Z,74.00
2022-08-19T15:40:07.572Z,74.40
2022-08-19T15:42:37.417Z,74.30
2022-08-19T15:45:08.070Z,74.70
2022-08-19T15:47:35.753Z,74.80
2022-08-19T15:50:11.118Z,74.80
2022-08-19T15:52:55.758Z,75.80
2022-08-19T15:55:32.604Z,76.20
2022-08-19T15:58:31.516Z,76.80
2022-08-19T16:01:27.140Z,78.30
2022-08-19T16:04:15.932Z,77.00
2022-08-19T16:06:48.863Z,76.60
2022-08-19T16:09:17.234Z,76.30
2022-08-19T16:11:46.043Z,77.00
2022-08-19T16:14:16.010Z,77.60
2022-08-19T16:16:47.275Z,78.90
2022-08-19T16:19:16.801Z,80.40
2022-08-19T16:21:46.377Z,81.60
2022-08-19T16:24:14.902Z,82.70
2022-08-19T16:26:43.299Z,83.60
2022-08-19T16:29:12.927Z,84.40
2022-08-19T16:31:43.459Z,84.90
2022-08-19T16:34:10.948Z,85.20
2022-08-19T16:36:42.062Z,85.60
2022-08-19T16:39:14.495Z,85.50
2022-08-19T16:41:43.011Z,86.20
2022-08-19T16:44:12.680Z,86.50
2022-08-19T16:46:41.650Z,86.70
2022-08-19T16:49:11.191Z,87.00
2022-08-19T16:51:39.019Z,87.30
2022-08-19T16:54:06.592Z,88.30
2022-08-19T16:56:33.657Z,88.00
2022-08-19T16:59:00.575Z,87.10
2022-08-19T17:01:27.855Z,87.30
2022-08-19T17:03:55.282Z,87.80
2022-08-19T17:06:26.068Z,88.70
2022-08-19T17:08:54.421Z,89.10
2022-08-19T17:11:22.750Z,88.90
2022-08-19T17:13:50.964Z,89.70
2022-08-19T17:16:19.864Z,89.20
2022-08-19T17:18:46.705Z,90.10
2022-08-19T17:21:13.522Z,90.00
2022-08-19T17:23:43.558Z,90.60
2022-08-19T17:26:17.075Z,90.30
2022-08-19T17:28:48.014Z,91.90
2022-08-19T17:31:15.323Z,92.20
2022-08-19T17:33:42.157Z,92.80
2022-08-19T17:36:09.145Z,93.00
2022-08-19T17:38:37.360Z,93.60
2022-08-19T17:41:05.489Z,94.00
2022-08-19T17:43:33.939Z,94.10
2022-08-19T17:46:03.954Z,94.20
2022-08-19T17:48:32.429Z,94.40
2022-08-19T17:51:00.467Z,94.60
2022-08-19T17:53:27.228Z,94.80
2022-08-19T17:55:54.055Z,94.90
2022-08-19T17:58:22.521Z,95.10
2022-08-19T18:00:54.057Z,95.30
2022-08-19T18:03:21.264Z,95.50
2022-08-19T18:05:48.155Z,95.40
2022-08-19T18:08:15.282Z,95.40
2022-08-19T18:10:42.178Z,95.30
2022-08-19T18:13:17.329Z,95.60
2022-08-19T18:15:44.703Z,95.60
2022-08-19T18:18:14.903Z,95.60
2022-08-19T18:20:42.738Z,95.90
2022-08-19T18:23:43.791Z,96.20
2022-08-19T18:25:56.520Z,96.10
2022-08-19T18:28:24.766Z,96.30
2022-08-19T18:30:51.869Z,96.40
2022-08-19T18:33:18.823Z,96.20
2022-08-19T18:35:46.842Z,96.40
2022-08-19T18:38:33.194Z,96.70
2022-08-19T18:41:18.858Z,96.60
2022-08-19T18:44:04.099Z,96.80
2022-08-19T18:46:49.606Z,96.90
2022-08-19T18:49:20.148Z,96.60
2022-08-19T18:51:46.956Z,96.80
2022-08-19T18:54:14.261Z,96.80
2022-08-19T18:56:44.686Z,96.70
2022-08-19T18:59:14.851Z,96.70
2022-08-19T19:01:50.533Z,96.80
2022-08-19T19:04:18.259Z,96.10
2022-08-19T19:06:45.435Z,96.40
2022-08-19T19:09:17.586Z,96.70
2022-08-19T19:11:46.633Z,96.20
2022-08-19T19:14:27.606Z,96.90
2022-08-19T19:17:03.556Z,96.80
2022-08-19T19:19:30.850Z,96.10
2022-08-19T19:21:58.760Z,96.40
2022-08-19T19:24:30.947Z,96.60
2022-08-19T19:26:59.727Z,96.90
2022-08-19T19:29:27.042Z,96.90
2022-08-19T19:31:56.038Z,96.70
2022-08-19T19:34:29.935Z,97.00
2022-08-19T19:36:56.981Z,97.20
2022-08-19T19:39:41.080Z,96.60
2022-08-19T19:42:13.708Z,96.80
2022-08-19T19:44:49.300Z,97.00
2022-08-19T19:47:17.512Z,97.30
2022-08-19T19:52:38.355Z,97.10
2022-08-19T19:55:05.395Z,97.20
2022-08-19T19:57:32.246Z,97.30
2022-08-19T20:00:00.789Z,97.70
2022-08-19T20:02:27.810Z,93.00
2022-08-19T20:04:57.145Z,94.30
2022-08-19T20:07:43.904Z,97.10
2022-08-19T20:10:10.818Z,97.40
2022-08-19T20:12:39.194Z,97.70
2022-08-19T20:15:06.766Z,97.90
2022-08-19T20:17:33.676Z,98.00
2022-08-19T20:20:00.564Z,98.00
2022-08-19T20:22:27.339Z,98.20
2022-08-19T20:25:01.305Z,98.40
2022-08-19T20:27:29.306Z,98.50
2022-08-19T20:29:58.312Z,98.20
2022-08-19T20:32:25.239Z,98.70
2022-08-19T20:34:52.062Z,98.20
2022-08-19T20:37:18.855Z,98.10
2022-08-19T20:39:45.705Z,98.60
2022-08-19T20:42:13.269Z,98.30
2022-08-19T20:44:40.092Z,98.10
2022-08-19T20:47:06.874Z,98.50
2022-08-19T20:49:35.211Z,97.90
2022-08-19T20:52:03.841Z,98.10
2022-08-19T20:54:31.011Z,97.90
2022-08-19T20:56:57.886Z,96.20
2022-08-19T20:59:25.809Z,97.50
2022-08-19T21:01:53.424Z,97.50
2022-08-19T21:04:21.422Z,97.30
2022-08-19T21:06:49.270Z,97.80
2022-08-19T21:09:16.154Z,97.70
2022-08-19T21:11:44.157Z,97.90
2022-08-19T21:14:11.142Z,94.10
2022-08-19T21:16:37.924Z,97.40
2022-08-19T21:19:04.915Z,97.70
2022-08-19T21:21:33.091Z,98.00
2022-08-19T21:23:59.937Z,97.80
2022-08-19T21:26:26.829Z,98.10
2022-08-19T21:28:53.612Z,98.30
2022-08-19T21:31:21.090Z,97.50
2022-08-19T21:33:50.434Z,97.90
2022-08-19T21:36:20.396Z,98.10
2022-08-19T21:38:47.217Z,98.60
2022-08-19T21:41:14.055Z,98.30
2022-08-19T21:43:40.859Z,98.20
2022-08-19T21:46:08.965Z,98.60
2022-08-19T21:48:36.381Z,98.90
2022-08-19T21:51:03.329Z,98.90
2022-08-19T21:53:34.314Z,99.10
2022-08-19T21:56:02.549Z,98.90
2022-08-19T21:58:30.652Z,97.80
